sensor_id;sensor_type;location;lat;lon;timestamp;P1;durP1;ratioP1;P2;durP2;ratioP2
26311;SDS011;14019;56.964;24.016;2023-06-14T00:02:37;24.00;;;11.20;;
26311;SDS011;14019;56.964;24.016;2023-06-14T00:05:23;21.17;;;10.95;;
26311;SDS011;14019;56.964;24.016;2023-06-14T00:08:10;24.33;;;10.48;;
26311;SDS011;14019;56.964;24.016;2023-06-14T00:10:56;19.45;;;9.40;;
26311;SDS011;14019;56.964;24.016;2023-06-14T00:13:43;22.00;;;11.18;;
26311;SDS011;14019;56.964;24.016;2023-06-14T00:16:30;25.20;;;11.43;;
26311;SDS011;14019;56.964;24.016;2023-06-14T00:19:18;30.63;;;12.95;;
26311;SDS011;14019;56.964;24.016;2023-06-14T00:22:05;19.05;;;10.75;;
26311;SDS011;14019;56.964;24.016;2023-06-14T00:24:51;21.35;;;11.32;;
26311;SDS011;14019;56.964;24.016;2023-06-14T00:27:41;29.60;;;13.40;;
26311;SDS011;14019;56.964;24.016;2023-06-14T00:30:28;30.20;;;13.07;;
26311;SDS011;14019;56.964;24.016;2023-06-14T00:33:16;31.52;;;13.55;;
26311;SDS011;14019;56.964;24.016;2023-06-14T00:36:03;35.55;;;15.40;;
26311;SDS011;14019;56.964;24.016;2023-06-14T00:38:50;33.95;;;15.35;;
26311;SDS011;14019;56.964;24.016;2023-06-14T00:41:36;33.90;;;15.63;;
26311;SDS011;14019;56.964;24.016;2023-06-14T00:44:23;37.83;;;16.02;;
26311;SDS011;14019;56.964;24.016;2023-06-14T00:47:10;30.73;;;15.88;;
26311;SDS011;14019;56.964;24.016;2023-06-14T00:49:56;37.45;;;15.27;;
26311;SDS011;14019;56.964;24.016;2023-06-14T00:52:43;31.15;;;14.88;;
26311;SDS011;14019;56.964;24.016;2023-06-14T00:55:30;33.65;;;14.68;;
26311;SDS011;14019;56.964;24.016;2023-06-14T00:58:18;32.17;;;14.77;;
26311;SDS011;14019;56.964;24.016;2023-06-14T01:01:05;34.55;;;15.77;;
26311;SDS011;14019;56.964;24.016;2023-06-14T01:03:52;34.10;;;14.75;;
26311;SDS011;14019;56.964;24.016;2023-06-14T01:12:49;41.10;;;14.73;;
26311;SDS011;14019;56.964;24.016;2023-06-14T01:15:38;32.30;;;14.45;;
26311;SDS011;14019;56.964;24.016;2023-06-14T01:18:30;33.83;;;14.40;;
26311;SDS011;14019;56.964;24.016;2023-06-14T01:21:20;35.40;;;14.48;;
26311;SDS011;14019;56.964;24.016;2023-06-14T01:24:06;30.35;;;14.85;;
26311;SDS011;14019;56.964;24.016;2023-06-14T01:26:53;28.13;;;12.95;;
26311;SDS011;14019;56.964;24.016;2023-06-14T01:29:45;26.75;;;14.18;;
26311;SDS011;14019;56.964;24.016;2023-06-14T01:32:33;29.10;;;14.50;;
26311;SDS011;14019;56.964;24.016;2023-06-14T01:35:20;29.13;;;12.52;;
26311;SDS011;14019;56.964;24.016;2023-06-14T01:38:06;34.90;;;13.23;;
26311;SDS011;14019;56.964;24.016;2023-06-14T01:40:54;24.85;;;13.20;;
26311;SDS011;14019;56.964;24.016;2023-06-14T01:43:43;32.10;;;12.90;;
26311;SDS011;14019;56.964;24.016;2023-06-14T01:46:31;33.22;;;12.60;;
26311;SDS011;14019;56.964;24.016;2023-06-14T01:49:17;24.52;;;12.18;;
26311;SDS011;14019;56.964;24.016;2023-06-14T01:52:04;34.15;;;12.40;;
26311;SDS011;14019;56.964;24.016;2023-06-14T01:54:51;30.75;;;14.10;;
26311;SDS011;14019;56.964;24.016;2023-06-14T01:57:40;30.63;;;12.35;;
26311;SDS011;14019;56.964;24.016;2023-06-14T02:00:27;24.90;;;12.25;;
26311;SDS011;14019;56.964;24.016;2023-06-14T02:03:14;22.45;;;12.63;;
26311;SDS011;14019;56.964;24.016;2023-06-14T02:06:03;22.05;;;12.65;;
26311;SDS011;14019;56.964;24.016;2023-06-14T02:08:51;31.98;;;12.07;;
26311;SDS011;14019;56.964;24.016;2023-06-14T02:11:37;24.48;;;11.68;;
26311;SDS011;14019;56.964;24.016;2023-06-14T02:14:23;19.13;;;10.50;;
26311;SDS011;14019;56.964;24.016;2023-06-14T02:17:10;27.52;;;11.35;;
26311;SDS011;14019;56.964;24.016;2023-06-14T02:19:58;24.50;;;10.93;;
26311;SDS011;14019;56.964;24.016;2023-06-14T02:22:45;23.95;;;10.90;;
26311;SDS011;14019;56.964;24.016;2023-06-14T02:25:31;20.83;;;11.68;;
26311;SDS011;14019;56.964;24.016;2023-06-14T02:28:18;23.90;;;11.52;;
26311;SDS011;14019;56.964;24.016;2023-06-14T02:31:04;26.67;;;12.60;;
26311;SDS011;14019;56.964;24.016;2023-06-14T02:33:51;33.50;;;12.27;;
26311;SDS011;14019;56.964;24.016;2023-06-14T02:36:38;26.83;;;11.93;;
26311;SDS011;14019;56.964;24.016;2023-06-14T02:39:27;28.92;;;12.32;;
26311;SDS011;14019;56.964;24.016;2023-06-14T02:42:14;23.52;;;11.90;;
26311;SDS011;14019;56.964;24.016;2023-06-14T02:45:00;22.05;;;12.13;;
26311;SDS011;14019;56.964;24.016;2023-06-14T02:48:12;25.15;;;12.23;;
26311;SDS011;14019;56.964;24.016;2023-06-14T02:51:01;25.98;;;11.88;;
26311;SDS011;14019;56.964;24.016;2023-06-14T02:53:50;30.30;;;11.98;;
26311;SDS011;14019;56.964;24.016;2023-06-14T02:56:36;23.65;;;11.10;;
26311;SDS011;14019;56.964;24.016;2023-06-14T02:59:23;25.30;;;11.93;;
26311;SDS011;14019;56.964;24.016;2023-06-14T03:02:13;27.83;;;12.40;;
26311;SDS011;14019;56.964;24.016;2023-06-14T03:05:01;24.23;;;11.77;;
26311;SDS011;14019;56.964;24.016;2023-06-14T03:07:49;26.55;;;11.88;;
26311;SDS011;14019;56.964;24.016;2023-06-14T03:10:36;24.98;;;11.45;;
26311;SDS011;14019;56.964;24.016;2023-06-14T03:13:27;26.27;;;13.15;;
26311;SDS011;14019;56.964;24.016;2023-06-14T03:16:18;27.75;;;12.60;;
26311;SDS011;14019;56.964;24.016;2023-06-14T03:19:05;28.70;;;12.00;;
26311;SDS011;14019;56.964;24.016;2023-06-14T03:21:52;23.63;;;12.18;;
26311;SDS011;14019;56.964;24.016;2023-06-14T03:24:43;23.92;;;12.05;;
26311;SDS011;14019;56.964;24.016;2023-06-14T03:27:32;22.38;;;11.23;;
26311;SDS011;14019;56.964;24.016;2023-06-14T03:30:20;26.52;;;13.02;;
26311;SDS011;14019;56.964;24.016;2023-06-14T03:33:09;21.73;;;10.93;;
26311;SDS011;14019;56.964;24.016;2023-06-14T03:35:59;23.55;;;11.52;;
26311;SDS011;14019;56.964;24.016;2023-06-14T03:38:46;18.65;;;10.60;;
26311;SDS011;14019;56.964;24.016;2023-06-14T03:41:35;36.63;;;10.75;;
26311;SDS011;14019;56.964;24.016;2023-06-14T03:44:21;28.58;;;11.45;;
26311;SDS011;14019;56.964;24.016;2023-06-14T03:47:09;21.63;;;8.85;;
26311;SDS011;14019;56.964;24.016;2023-06-14T03:49:55;23.75;;;10.07;;
26311;SDS011;14019;56.964;24.016;2023-06-14T03:52:42;31.50;;;10.43;;
26311;SDS011;14019;56.964;24.016;2023-06-14T03:55:30;29.63;;;10.82;;
26311;SDS011;14019;56.964;24.016;2023-06-14T03:58:21;24.15;;;10.20;;
26311;SDS011;14019;56.964;24.016;2023-06-14T04:01:08;20.63;;;9.32;;
26311;SDS011;14019;56.964;24.016;2023-06-14T04:03:55;32.00;;;9.35;;
26311;SDS011;14019;56.964;24.016;2023-06-14T04:06:44;40.88;;;9.68;;
26311;SDS011;14019;56.964;24.016;2023-06-14T04:09:34;24.40;;;8.93;;
26311;SDS011;14019;56.964;24.016;2023-06-14T04:12:20;20.23;;;8.93;;
26311;SDS011;14019;56.964;24.016;2023-06-14T04:15:06;23.45;;;7.70;;
26311;SDS011;14019;56.964;24.016;2023-06-14T04:18:07;23.10;;;7.65;;
26311;SDS011;14019;56.964;24.016;2023-06-14T04:20:55;23.23;;;8.20;;
26311;SDS011;14019;56.964;24.016;2023-06-14T04:23:41;28.40;;;7.13;;
26311;SDS011;14019;56.964;24.016;2023-06-14T04:26:31;20.00;;;7.30;;
26311;SDS011;14019;56.964;24.016;2023-06-14T04:29:19;15.48;;;6.97;;
26311;SDS011;14019;56.964;24.016;2023-06-14T04:32:13;19.17;;;6.85;;
26311;SDS011;14019;56.964;24.016;2023-06-14T04:35:00;16.30;;;6.40;;
26311;SDS011;14019;56.964;24.016;2023-06-14T04:37:49;18.05;;;6.55;;
26311;SDS011;14019;56.964;24.016;2023-06-14T04:40:37;21.00;;;7.20;;
26311;SDS011;14019;56.964;24.016;2023-06-14T04:43:31;22.33;;;7.53;;
26311;SDS011;14019;56.964;24.016;2023-06-14T04:46:24;17.70;;;7.10;;
26311;SDS011;14019;56.964;24.016;2023-06-14T04:49:14;26.20;;;7.68;;
26311;SDS011;14019;56.964;24.016;2023-06-14T04:52:03;17.45;;;6.68;;
26311;SDS011;14019;56.964;24.016;2023-06-14T04:54:55;30.03;;;6.93;;
26311;SDS011;14019;56.964;24.016;2023-06-14T04:57:42;21.42;;;6.90;;
26311;SDS011;14019;56.964;24.016;2023-06-14T05:00:28;20.77;;;6.68;;
26311;SDS011;14019;56.964;24.016;2023-06-14T05:03:15;18.35;;;5.95;;
26311;SDS011;14019;56.964;24.016;2023-06-14T05:06:04;16.17;;;5.85;;
26311;SDS011;14019;56.964;24.016;2023-06-14T05:08:51;17.80;;;5.50;;
26311;SDS011;14019;56.964;24.016;2023-06-14T05:11:38;17.98;;;5.07;;
26311;SDS011;14019;56.964;24.016;2023-06-14T05:14:29;8.88;;;5.05;;
26311;SDS011;14019;56.964;24.016;2023-06-14T05:17:18;9.43;;;4.90;;
26311;SDS011;14019;56.964;24.016;2023-06-14T05:20:06;14.30;;;5.20;;
26311;SDS011;14019;56.964;24.016;2023-06-14T05:22:53;10.75;;;4.88;;
26311;SDS011;14019;56.964;24.016;2023-06-14T05:25:41;12.57;;;4.68;;
26311;SDS011;14019;56.964;24.016;2023-06-14T05:28:28;19.55;;;5.90;;
26311;SDS011;14019;56.964;24.016;2023-06-14T05:31:16;17.23;;;5.03;;
26311;SDS011;14019;56.964;24.016;2023-06-14T05:34:02;20.23;;;4.80;;
26311;SDS011;14019;56.964;24.016;2023-06-14T05:36:49;15.70;;;5.10;;
26311;SDS011;14019;56.964;24.016;2023-06-14T05:39:35;18.48;;;5.10;;
26311;SDS011;14019;56.964;24.016;2023-06-14T05:42:21;15.93;;;4.53;;
26311;SDS011;14019;56.964;24.016;2023-06-14T05:45:07;11.85;;;4.10;;
26311;SDS011;14019;56.964;24.016;2023-06-14T05:47:54;12.73;;;4.43;;
26311;SDS011;14019;56.964;24.016;2023-06-14T05:50:41;8.80;;;4.03;;
26311;SDS011;14019;56.964;24.016;2023-06-14T05:53:27;9.60;;;3.97;;
26311;SDS011;14019;56.964;24.016;2023-06-14T05:56:14;11.07;;;4.03;;
26311;SDS011;14019;56.964;24.016;2023-06-14T05:59:00;11.98;;;4.15;;
26311;SDS011;14019;56.964;24.016;2023-06-14T06:01:48;10.82;;;4.03;;
26311;SDS011;14019;56.964;24.016;2023-06-14T06:04:35;13.10;;;4.13;;
26311;SDS011;14019;56.964;24.016;2023-06-14T06:07:21;18.17;;;4.55;;
26311;SDS011;14019;56.964;24.016;2023-06-14T06:10:09;10.55;;;3.70;;
26311;SDS011;14019;56.964;24.016;2023-06-14T06:12:55;13.35;;;3.80;;
26311;SDS011;14019;56.964;24.016;2023-06-14T06:15:42;10.98;;;4.13;;
26311;SDS011;14019;56.964;24.016;2023-06-14T06:18:28;11.23;;;4.30;;
26311;SDS011;14019;56.964;24.016;2023-06-14T06:21:15;11.60;;;4.13;;
26311;SDS011;14019;56.964;24.016;2023-06-14T06:24:02;11.98;;;3.65;;
26311;SDS011;14019;56.964;24.016;2023-06-14T06:26:51;7.40;;;3.50;;
26311;SDS011;14019;56.964;24.016;2023-06-14T06:29:41;7.88;;;4.00;;
26311;SDS011;14019;56.964;24.016;2023-06-14T06:32:31;19.10;;;4.10;;
26311;SDS011;14019;56.964;24.016;2023-06-14T06:35:18;12.90;;;3.25;;
26311;SDS011;14019;56.964;24.016;2023-06-14T06:38:04;13.93;;;3.63;;
26311;SDS011;14019;56.964;24.016;2023-06-14T06:40:51;8.30;;;3.50;;
26311;SDS011;14019;56.964;24.016;2023-06-14T06:43:39;9.75;;;3.05;;
26311;SDS011;14019;56.964;24.016;2023-06-14T06:46:27;8.82;;;3.20;;
26311;SDS011;14019;56.964;24.016;2023-06-14T06:49:16;8.20;;;3.10;;
26311;SDS011;14019;56.964;24.016;2023-06-14T06:52:04;6.65;;;3.08;;
26311;SDS011;14019;56.964;24.016;2023-06-14T06:54:51;10.00;;;3.30;;
26311;SDS011;14019;56.964;24.016;2023-06-14T06:57:45;10.52;;;3.20;;
26311;SDS011;14019;56.964;24.016;2023-06-14T07:00:31;7.63;;;3.33;;
26311;SDS011;14019;56.964;24.016;2023-06-14T07:03:17;7.03;;;3.30;;
26311;SDS011;14019;56.964;24.016;2023-06-14T07:06:03;5.53;;;3.30;;
26311;SDS011;14019;56.964;24.016;2023-06-14T07:08:50;7.65;;;3.30;;
26311;SDS011;14019;56.964;24.016;2023-06-14T07:11:38;11.02;;;3.20;;
26311;SDS011;14019;56.964;24.016;2023-06-14T07:14:24;10.93;;;3.40;;
26311;SDS011;14019;56.964;24.016;2023-06-14T07:17:11;7.53;;;3.30;;
26311;SDS011;14019;56.964;24.016;2023-06-14T07:19:57;6.25;;;2.88;;
26311;SDS011;14019;56.964;24.016;2023-06-14T07:22:44;12.52;;;2.97;;
26311;SDS011;14019;56.964;24.016;2023-06-14T07:25:31;10.43;;;3.00;;
26311;SDS011;14019;56.964;24.016;2023-06-14T07:28:18;7.38;;;3.05;;
26311;SDS011;14019;56.964;24.016;2023-06-14T07:31:04;5.47;;;3.20;;
26311;SDS011;14019;56.964;24.016;2023-06-14T07:37:03;9.13;;;3.38;;
26311;SDS011;14019;56.964;24.016;2023-06-14T07:39:49;9.23;;;3.30;;
26311;SDS011;14019;56.964;24.016;2023-06-14T07:42:36;11.65;;;3.30;;
26311;SDS011;14019;56.964;24.016;2023-06-14T07:45:23;7.85;;;3.72;;
26311;SDS011;14019;56.964;24.016;2023-06-14T07:48:09;7.30;;;3.60;;
26311;SDS011;14019;56.964;24.016;2023-06-14T07:50:56;10.43;;;3.50;;
26311;SDS011;14019;56.964;24.016;2023-06-14T07:53:43;6.30;;;3.42;;
26311;SDS011;14019;56.964;24.016;2023-06-14T07:56:28;7.57;;;3.22;;
26311;SDS011;14019;56.964;24.016;2023-06-14T07:59:15;7.85;;;3.17;;
26311;SDS011;14019;56.964;24.016;2023-06-14T08:02:01;12.70;;;3.28;;
26311;SDS011;14019;56.964;24.016;2023-06-14T08:04:48;12.13;;;3.40;;
26311;SDS011;14019;56.964;24.016;2023-06-14T08:07:34;4.78;;;3.03;;
26311;SDS011;14019;56.964;24.016;2023-06-14T08:10:21;9.35;;;3.22;;
26311;SDS011;14019;56.964;24.016;2023-06-14T08:13:09;4.53;;;3.00;;
26311;SDS011;14019;56.964;24.016;2023-06-14T08:15:55;6.78;;;3.50;;
26311;SDS011;14019;56.964;24.016;2023-06-14T08:18:43;6.88;;;3.40;;
26311;SDS011;14019;56.964;24.016;2023-06-14T08:21:29;10.05;;;3.30;;
26311;SDS011;14019;56.964;24.016;2023-06-14T08:24:20;5.50;;;3.00;;
26311;SDS011;14019;56.964;24.016;2023-06-14T08:27:11;12.45;;;3.28;;
26311;SDS011;14019;56.964;24.016;2023-06-14T08:29:58;9.43;;;3.10;;
26311;SDS011;14019;56.964;24.016;2023-06-14T08:32:44;5.88;;;2.90;;
26311;SDS011;14019;56.964;24.016;2023-06-14T08:35:35;5.53;;;3.03;;
26311;SDS011;14019;56.964;24.016;2023-06-14T08:38:24;4.40;;;3.00;;
26311;SDS011;14019;56.964;24.016;2023-06-14T08:41:11;7.13;;;3.30;;
26311;SDS011;14019;56.964;24.016;2023-06-14T08:44:01;8.05;;;3.47;;
26311;SDS011;14019;56.964;24.016;2023-06-14T08:46:47;8.07;;;3.17;;
26311;SDS011;14019;56.964;24.016;2023-06-14T08:49:34;5.65;;;3.08;;
26311;SDS011;14019;56.964;24.016;2023-06-14T08:52:22;16.35;;;3.58;;
26311;SDS011;14019;56.964;24.016;2023-06-14T08:55:10;5.75;;;3.08;;
26311;SDS011;14019;56.964;24.016;2023-06-14T08:57:57;7.05;;;3.13;;
26311;SDS011;14019;56.964;24.016;2023-06-14T09:00:44;7.13;;;3.40;;
26311;SDS011;14019;56.964;24.016;2023-06-14T09:03:31;7.53;;;3.20;;
26311;SDS011;14019;56.964;24.016;2023-06-14T09:06:18;8.80;;;3.63;;
26311;SDS011;14019;56.964;24.016;2023-06-14T09:09:08;5.45;;;3.30;;
26311;SDS011;14019;56.964;24.016;2023-06-14T09:11:55;5.55;;;3.22;;
26311;SDS011;14019;56.964;24.016;2023-06-14T09:14:43;7.60;;;3.47;;
26311;SDS011;14019;56.964;24.016;2023-06-14T09:17:37;9.30;;;3.30;;
26311;SDS011;14019;56.964;24.016;2023-06-14T09:20:24;7.47;;;3.55;;
26311;SDS011;14019;56.964;24.016;2023-06-14T09:23:11;8.52;;;3.53;;
26311;SDS011;14019;56.964;24.016;2023-06-14T09:25:58;6.53;;;3.50;;
26311;SDS011;14019;56.964;24.016;2023-06-14T09:28:46;5.93;;;3.58;;
26311;SDS011;14019;56.964;24.016;2023-06-14T09:31:34;9.20;;;3.35;;
26311;SDS011;14019;56.964;24.016;2023-06-14T09:34:22;5.85;;;3.40;;
26311;SDS011;14019;56.964;24.016;2023-06-14T09:37:08;10.10;;;3.50;;
26311;SDS011;14019;56.964;24.016;2023-06-14T09:39:54;9.52;;;3.28;;
26311;SDS011;14019;56.964;24.016;2023-06-14T09:42:41;6.38;;;3.35;;
26311;SDS011;14019;56.964;24.016;2023-06-14T09:45:30;5.88;;;3.53;;
26311;SDS011;14019;56.964;24.016;2023-06-14T09:48:17;7.97;;;3.58;;
26311;SDS011;14019;56.964;24.016;2023-06-14T09:51:04;6.40;;;3.17;;
26311;SDS011;14019;56.964;24.016;2023-06-14T09:53:52;9.35;;;4.03;;
26311;SDS011;14019;56.964;24.016;2023-06-14T09:56:41;6.95;;;3.90;;
26311;SDS011;14019;56.964;24.016;2023-06-14T09:59:27;6.47;;;3.50;;
26311;SDS011;14019;56.964;24.016;2023-06-14T10:08:04;8.73;;;3.97;;
26311;SDS011;14019;56.964;24.016;2023-06-14T10:10:55;6.97;;;3.70;;
26311;SDS011;14019;56.964;24.016;2023-06-14T10:13:42;7.65;;;3.40;;
26311;SDS011;14019;56.964;24.016;2023-06-14T10:19:18;9.85;;;3.40;;
26311;SDS011;14019;56.964;24.016;2023-06-14T10:22:21;6.05;;;3.40;;
26311;SDS011;14019;56.964;24.016;2023-06-14T10:25:16;8.63;;;3.67;;
26311;SDS011;14019;56.964;24.016;2023-06-14T10:28:19;8.90;;;3.80;;
26311;SDS011;14019;56.964;24.016;2023-06-14T10:36:41;5.95;;;3.72;;
26311;SDS011;14019;56.964;24.016;2023-06-14T10:39:30;6.80;;;3.38;;
26311;SDS011;14019;56.964;24.016;2023-06-14T10:42:17;6.32;;;3.58;;
26311;SDS011;14019;56.964;24.016;2023-06-14T10:45:05;6.72;;;3.65;;
26311;SDS011;14019;56.964;24.016;2023-06-14T10:47:52;5.85;;;3.45;;
26311;SDS011;14019;56.964;24.016;2023-06-14T10:50:39;7.55;;;3.42;;
26311;SDS011;14019;56.964;24.016;2023-06-14T10:53:30;9.15;;;3.53;;
26311;SDS011;14019;56.964;24.016;2023-06-14T10:56:29;5.97;;;3.50;;
26311;SDS011;14019;56.964;24.016;2023-06-14T10:59:17;7.15;;;3.40;;
26311;SDS011;14019;56.964;24.016;2023-06-14T11:05:05;9.65;;;3.88;;
26311;SDS011;14019;56.964;24.016;2023-06-14T11:11:07;8.07;;;3.67;;
26311;SDS011;14019;56.964;24.016;2023-06-14T11:13:57;6.03;;;3.70;;
26311;SDS011;14019;56.964;24.016;2023-06-14T11:16:47;6.07;;;3.30;;
26311;SDS011;14019;56.964;24.016;2023-06-14T11:19:34;6.47;;;3.30;;
26311;SDS011;14019;56.964;24.016;2023-06-14T11:22:21;7.35;;;3.58;;
26311;SDS011;14019;56.964;24.016;2023-06-14T11:25:09;9.15;;;3.53;;
26311;SDS011;14019;56.964;24.016;2023-06-14T11:27:55;7.15;;;3.30;;
26311;SDS011;14019;56.964;24.016;2023-06-14T11:30:42;11.18;;;3.50;;
26311;SDS011;14019;56.964;24.016;2023-06-14T11:33:28;11.35;;;3.80;;
26311;SDS011;14019;56.964;24.016;2023-06-14T11:36:15;6.97;;;3.75;;
26311;SDS011;14019;56.964;24.016;2023-06-14T11:39:02;9.55;;;3.47;;
26311;SDS011;14019;56.964;24.016;2023-06-14T11:41:51;11.13;;;3.70;;
26311;SDS011;14019;56.964;24.016;2023-06-14T11:44:37;13.23;;;3.47;;
26311;SDS011;14019;56.964;24.016;2023-06-14T11:47:24;8.55;;;3.17;;
26311;SDS011;14019;56.964;24.016;2023-06-14T11:50:10;7.00;;;3.10;;
26311;SDS011;14019;56.964;24.016;2023-06-14T11:52:58;9.20;;;3.10;;
26311;SDS011;14019;56.964;24.016;2023-06-14T11:55:52;11.60;;;3.20;;
26311;SDS011;14019;56.964;24.016;2023-06-14T11:58:39;7.85;;;3.33;;
26311;SDS011;14019;56.964;24.016;2023-06-14T12:01:25;8.75;;;3.33;;
26311;SDS011;14019;56.964;24.016;2023-06-14T12:04:12;11.45;;;3.40;;
26311;SDS011;14019;56.964;24.016;2023-06-14T12:07:10;10.73;;;3.20;;
26311;SDS011;14019;56.964;24.016;2023-06-14T12:12:48;6.80;;;2.90;;
26311;SDS011;14019;56.964;24.016;2023-06-14T12:15:34;7.35;;;3.05;;
26311;SDS011;14019;56.964;24.016;2023-06-14T12:18:30;11.10;;;2.97;;
26311;SDS011;14019;56.964;24.016;2023-06-14T12:21:18;9.27;;;2.90;;
26311;SDS011;14019;56.964;24.016;2023-06-14T12:24:09;7.00;;;2.80;;
26311;SDS011;14019;56.964;24.016;2023-06-14T12:26:58;6.95;;;2.95;;
26311;SDS011;14019;56.964;24.016;2023-06-14T12:29:46;9.10;;;3.05;;
26311;SDS011;14019;56.964;24.016;2023-06-14T12:32:32;9.68;;;3.15;;
26311;SDS011;14019;56.964;24.016;2023-06-14T12:35:18;6.13;;;3.28;;
26311;SDS011;14019;56.964;24.016;2023-06-14T12:38:05;5.28;;;3.10;;
26311;SDS011;14019;56.964;24.016;2023-06-14T12:40:52;4.72;;;3.17;;
26311;SDS011;14019;56.964;24.016;2023-06-14T12:43:39;7.70;;;3.35;;
26311;SDS011;14019;56.964;24.016;2023-06-14T12:46:25;12.05;;;3.05;;
26311;SDS011;14019;56.964;24.016;2023-06-14T12:49:12;5.55;;;3.22;;
26311;SDS011;14019;56.964;24.016;2023-06-14T12:51:58;5.50;;;2.95;;
26311;SDS011;14019;56.964;24.016;2023-06-14T12:54:45;5.88;;;2.80;;
26311;SDS011;14019;56.964;24.016;2023-06-14T12:57:31;12.18;;;3.03;;
26311;SDS011;14019;56.964;24.016;2023-06-14T13:00:25;8.35;;;2.85;;
26311;SDS011;14019;56.964;24.016;2023-06-14T13:03:12;6.32;;;2.58;;
26311;SDS011;14019;56.964;24.016;2023-06-14T13:05:59;7.22;;;3.00;;
26311;SDS011;14019;56.964;24.016;2023-06-14T13:08:48;5.43;;;3.38;;
26311;SDS011;14019;56.964;24.016;2023-06-14T13:11:36;6.07;;;3.15;;
26311;SDS011;14019;56.964;24.016;2023-06-14T13:14:23;6.93;;;2.97;;
26311;SDS011;14019;56.964;24.016;2023-06-14T13:17:11;5.85;;;3.00;;
26311;SDS011;14019;56.964;24.016;2023-06-14T13:19:57;5.18;;;3.03;;
26311;SDS011;14019;56.964;24.016;2023-06-14T13:22:56;6.50;;;2.90;;
26311;SDS011;14019;56.964;24.016;2023-06-14T13:25:42;7.18;;;3.00;;
26311;SDS011;14019;56.964;24.016;2023-06-14T13:28:29;8.82;;;2.72;;
26311;SDS011;14019;56.964;24.016;2023-06-14T13:31:16;13.00;;;3.00;;
26311;SDS011;14019;56.964;24.016;2023-06-14T13:34:03;7.15;;;2.70;;
26311;SDS011;14019;56.964;24.016;2023-06-14T13:36:50;6.97;;;3.03;;
26311;SDS011;14019;56.964;24.016;2023-06-14T13:39:41;7.18;;;2.75;;
26311;SDS011;14019;56.964;24.016;2023-06-14T13:42:27;10.38;;;3.00;;
26311;SDS011;14019;56.964;24.016;2023-06-14T13:45:16;7.88;;;3.17;;
26311;SDS011;14019;56.964;24.016;2023-06-14T13:48:03;7.60;;;2.70;;
26311;SDS011;14019;56.964;24.016;2023-06-14T13:50:49;8.75;;;3.10;;
26311;SDS011;14019;56.964;24.016;2023-06-14T13:53:45;6.88;;;3.13;;
26311;SDS011;14019;56.964;24.016;2023-06-14T13:56:32;6.18;;;3.38;;
26311;SDS011;14019;56.964;24.016;2023-06-14T13:59:19;6.40;;;2.92;;
26311;SDS011;14019;56.964;24.016;2023-06-14T14:02:05;5.35;;;2.60;;
26311;SDS011;14019;56.964;24.016;2023-06-14T14:04:52;4.72;;;3.13;;
26311;SDS011;14019;56.964;24.016;2023-06-14T14:07:39;10.73;;;3.10;;
26311;SDS011;14019;56.964;24.016;2023-06-14T14:10:26;9.07;;;3.53;;
26311;SDS011;14019;56.964;24.016;2023-06-14T14:13:12;6.70;;;2.80;;
26311;SDS011;14019;56.964;24.016;2023-06-14T14:15:59;5.43;;;3.25;;
26311;SDS011;14019;56.964;24.016;2023-06-14T14:18:50;7.30;;;3.15;;
26311;SDS011;14019;56.964;24.016;2023-06-14T14:21:37;10.07;;;3.08;;
26311;SDS011;14019;56.964;24.016;2023-06-14T14:24:23;6.45;;;3.10;;
26311;SDS011;14019;56.964;24.016;2023-06-14T14:27:10;3.58;;;2.60;;
26311;SDS011;14019;56.964;24.016;2023-06-14T14:29:57;8.45;;;3.15;;
26311;SDS011;14019;56.964;24.016;2023-06-14T14:32:43;5.40;;;2.72;;
26311;SDS011;14019;56.964;24.016;2023-06-14T14:35:30;5.00;;;2.60;;
26311;SDS011;14019;56.964;24.016;2023-06-14T14:38:16;8.40;;;2.92;;
26311;SDS011;14019;56.964;24.016;2023-06-14T14:41:03;9.55;;;3.15;;
26311;SDS011;14019;56.964;24.016;2023-06-14T14:43:50;6.28;;;3.15;;
26311;SDS011;14019;56.964;24.016;2023-06-14T14:46:37;4.68;;;3.00;;
26311;SDS011;14019;56.964;24.016;2023-06-14T14:49:24;8.82;;;3.20;;
26311;SDS011;14019;56.964;24.016;2023-06-14T14:52:10;9.40;;;2.97;;
26311;SDS011;14019;56.964;24.016;2023-06-14T14:55:08;6.85;;;3.10;;
26311;SDS011;14019;56.964;24.016;2023-06-14T14:57:58;9.57;;;3.20;;
26311;SDS011;14019;56.964;24.016;2023-06-14T15:00:44;5.22;;;3.15;;
26311;SDS011;14019;56.964;24.016;2023-06-14T15:03:31;6.65;;;2.92;;
26311;SDS011;14019;56.964;24.016;2023-06-14T15:06:38;6.25;;;3.58;;
26311;SDS011;14019;56.964;24.016;2023-06-14T15:09:27;9.02;;;3.05;;
26311;SDS011;14019;56.964;24.016;2023-06-14T15:12:13;7.70;;;3.17;;
26311;SDS011;14019;56.964;24.016;2023-06-14T15:15:44;8.48;;;3.13;;
26311;SDS011;14019;56.964;24.016;2023-06-14T15:18:30;4.88;;;3.10;;
26311;SDS011;14019;56.964;24.016;2023-06-14T15:21:19;7.15;;;3.00;;
26311;SDS011;14019;56.964;24.016;2023-06-14T15:24:07;5.60;;;3.10;;
26311;SDS011;14019;56.964;24.016;2023-06-14T15:26:54;10.10;;;3.30;;
26311;SDS011;14019;56.964;24.016;2023-06-14T15:29:43;7.18;;;3.03;;
26311;SDS011;14019;56.964;24.016;2023-06-14T15:35:20;8.98;;;3.38;;
26311;SDS011;14019;56.964;24.016;2023-06-14T15:38:07;8.25;;;3.17;;
26311;SDS011;14019;56.964;24.016;2023-06-14T15:40:54;10.65;;;3.55;;
26311;SDS011;14019;56.964;24.016;2023-06-14T15:43:40;6.30;;;3.05;;
26311;SDS011;14019;56.964;24.016;2023-06-14T15:46:26;6.82;;;3.33;;
26311;SDS011;14019;56.964;24.016;2023-06-14T15:49:13;7.22;;;3.25;;
26311;SDS011;14019;56.964;24.016;2023-06-14T15:52:00;9.75;;;3.05;;
26311;SDS011;14019;56.964;24.016;2023-06-14T15:54:46;6.78;;;3.30;;
26311;SDS011;14019;56.964;24.016;2023-06-14T15:57:33;5.45;;;3.00;;
26311;SDS011;14019;56.964;24.016;2023-06-14T16:00:21;5.25;;;3.00;;
26311;SDS011;14019;56.964;24.016;2023-06-14T16:03:07;7.65;;;3.10;;
26311;SDS011;14019;56.964;24.016;2023-06-14T16:05:55;9.73;;;2.90;;
26311;SDS011;14019;56.964;24.016;2023-06-14T16:08:43;5.03;;;2.90;;
26311;SDS011;14019;56.964;24.016;2023-06-14T16:11:29;4.20;;;2.60;;
26311;SDS011;14019;56.964;24.016;2023-06-14T16:14:17;10.55;;;3.10;;
26311;SDS011;14019;56.964;24.016;2023-06-14T16:17:06;7.55;;;2.88;;
26311;SDS011;14019;56.964;24.016;2023-06-14T16:19:52;6.25;;;3.20;;
26311;SDS011;14019;56.964;24.016;2023-06-14T16:22:39;5.38;;;2.90;;
26311;SDS011;14019;56.964;24.016;2023-06-14T16:25:25;7.82;;;3.20;;
26311;SDS011;14019;56.964;24.016;2023-06-14T16:28:11;5.07;;;2.97;;
26311;SDS011;14019;56.964;24.016;2023-06-14T16:30:58;9.82;;;3.03;;
26311;SDS011;14019;56.964;24.016;2023-06-14T16:33:48;7.25;;;2.80;;
26311;SDS011;14019;56.964;24.016;2023-06-14T16:36:40;6.35;;;3.25;;
26311;SDS011;14019;56.964;24.016;2023-06-14T16:39:26;6.00;;;2.80;;
26311;SDS011;14019;56.964;24.016;2023-06-14T16:42:13;6.35;;;3.28;;
26311;SDS011;14019;56.964;24.016;2023-06-14T16:44:59;9.40;;;3.33;;
26311;SDS011;14019;56.964;24.016;2023-06-14T16:47:51;5.65;;;3.08;;
26311;SDS011;14019;56.964;24.016;2023-06-14T16:50:37;9.65;;;3.17;;
26311;SDS011;14019;56.964;24.016;2023-06-14T16:53:23;8.85;;;2.83;;
26311;SDS011;14019;56.964;24.016;2023-06-14T16:56:10;5.03;;;3.10;;
26311;SDS011;14019;56.964;24.016;2023-06-14T16:58:59;10.18;;;3.40;;
26311;SDS011;14019;56.964;24.016;2023-06-14T17:01:45;11.63;;;3.28;;
26311;SDS011;14019;56.964;24.016;2023-06-14T17:04:33;8.23;;;3.10;;